createdAt,value
2023-05-19T00:01:43.940Z,17.03
2023-05-19T00:04:11.724Z,16.94
2023-05-19T00:06:39.090Z,16.97
2023-05-19T00:09:10.482Z,16.91
2023-05-19T00:11:39.642Z,16.84
2023-05-19T00:14:08.990Z,17.02
2023-05-19T00:16:37.022Z,17.02
2023-05-19T00:19:06.052Z,17.02
2023-05-19T00:21:33.080Z,16.95
2023-05-19T00:23:59.970Z,16.93
2023-05-19T00:26:27.644Z,16.88
2023-05-19T00:28:59.961Z,16.78
2023-05-19T00:31:26.986Z,16.74
2023-05-19T00:33:55.256Z,16.72
2023-05-19T00:36:22.255Z,16.69
2023-05-19T00:38:49.589Z,16.78
2023-05-19T00:41:16.718Z,16.73
2023-05-19T00:43:43.768Z,16.65
2023-05-19T00:46:10.895Z,16.59
2023-05-19T00:48:37.869Z,16.66
2023-05-19T00:51:05.712Z,16.60
2023-05-19T00:53:34.286Z,16.41
2023-05-19T00:56:03.093Z,16.42
2023-05-19T00:58:31.690Z,16.41
2023-05-19T01:01:00.292Z,16.37
2023-05-19T01:03:27.395Z,16.51
2023-05-19T01:05:54.503Z,16.45
2023-05-19T01:08:21.589Z,16.45
2023-05-19T01:10:48.650Z,16.42
2023-05-19T01:13:17.048Z,16.33
2023-05-19T01:16:06.159Z,16.39
2023-05-19T01:19:00.139Z,16.42
2023-05-19T01:21:48.633Z,16.37
2023-05-19T01:24:57.354Z,16.54
2023-05-19T01:28:12.405Z,16.46
2023-05-19T01:30:41.618Z,16.47
2023-05-19T01:33:14.820Z,16.32
2023-05-19T01:35:43.629Z,16.43
2023-05-19T01:38:12.137Z,16.57
2023-05-19T01:40:41.644Z,16.61
2023-05-19T01:43:13.672Z,16.61
2023-05-19T01:45:41.067Z,16.58
2023-05-19T01:48:10.807Z,16.62
2023-05-19T01:50:39.779Z,16.69
2023-05-19T01:53:06.823Z,16.59
2023-05-19T01:55:42.317Z,16.75
2023-05-19T01:58:36.706Z,17.00
2023-05-19T02:01:15.970Z,16.88
2023-05-19T02:04:19.513Z,17.03
2023-05-19T02:06:55.363Z,17.11
2023-05-19T02:09:32.846Z,17.04
2023-05-19T02:12:24.301Z,17.13
2023-05-19T02:15:05.814Z,17.14
2023-05-19T02:17:38.157Z,17.25
2023-05-19T02:20:06.487Z,17.17
2023-05-19T02:22:33.364Z,17.09
2023-05-19T02:25:00.474Z,17.21
2023-05-19T02:27:27.718Z,17.10
2023-05-19T02:29:54.734Z,17.26
2023-05-19T02:32:21.658Z,17.32
2023-05-19T02:34:49.077Z,17.30
2023-05-19T02:37:16.613Z,17.46
2023-05-19T02:39:43.919Z,17.54
2023-05-19T02:42:11.326Z,17.57
2023-05-19T02:44:38.413Z,17.82
2023-05-19T02:47:05.335Z,17.86
2023-05-19T02:49:32.953Z,18.18
2023-05-19T02:52:00.781Z,18.55
2023-05-19T02:54:27.786Z,20.02
2023-05-19T02:56:54.726Z,21.20
2023-05-19T02:59:21.935Z,22.34
2023-05-19T03:01:49.518Z,23.45
2023-05-19T03:04:16.693Z,24.26
2023-05-19T03:06:43.677Z,25.09
2023-05-19T03:09:10.659Z,25.45
2023-05-19T03:11:37.556Z,26.11
2023-05-19T03:14:04.580Z,26.74
2023-05-19T03:16:31.616Z,26.95
2023-05-19T03:18:58.785Z,27.75
2023-05-19T03:21:25.861Z,28.32
2023-05-19T03:23:53.433Z,28.56
2023-05-19T03:26:20.742Z,28.93
2023-05-19T03:28:47.673Z,29.69
2023-05-19T03:31:14.672Z,30.06
2023-05-19T03:33:42.007Z,29.96
2023-05-19T03:36:09.165Z,30.67
2023-05-19T03:38:38.904Z,31.11
2023-05-19T03:41:05.991Z,31.57
2023-05-19T03:43:32.951Z,32.10
2023-05-19T03:46:03.441Z,32.32
2023-05-19T03:48:48.951Z,32.39
2023-05-19T03:51:18.557Z,32.88
2023-05-19T03:53:47.251Z,33.40
2023-05-19T03:56:14.679Z,33.54
2023-05-19T03:58:41.611Z,34.13
2023-05-19T04:01:08.532Z,34.73
2023-05-19T04:03:36.003Z,35.00
2023-05-19T04:06:03.708Z,34.69
2023-05-19T04:08:32.035Z,34.40
2023-05-19T04:10:59.132Z,33.89
2023-05-19T04:13:26.186Z,34.00
2023-05-19T04:15:53.381Z,33.55
2023-05-19T04:18:20.493Z,33.42
2023-05-19T04:20:47.573Z,33.76
2023-05-19T04:23:14.540Z,33.60
2023-05-19T04:25:41.814Z,33.58
2023-05-19T04:28:08.864Z,33.58
2023-05-19T04:30:35.828Z,33.76
2023-05-19T04:33:02.927Z,33.57
2023-05-19T04:35:30.291Z,33.28
2023-05-19T04:37:59.342Z,33.18
2023-05-19T04:40:29.743Z,33.06
2023-05-19T04:42:57.382Z,33.40
2023-05-19T04:45:25.298Z,33.28
2023-05-19T04:47:54.630Z,33.24
2023-05-19T04:50:21.544Z,32.93
2023-05-19T04:52:48.691Z,31.77
2023-05-19T04:55:15.727Z,30.57
2023-05-19T04:57:42.817Z,29.56
2023-05-19T05:00:10.804Z,29.20
2023-05-19T05:02:46.034Z,28.86
2023-05-19T05:05:13.808Z,28.24
2023-05-19T05:07:41.024Z,28.34
2023-05-19T05:10:08.889Z,28.45
2023-05-19T05:12:36.221Z,28.36
2023-05-19T05:15:03.976Z,28.04
2023-05-19T05:17:31.328Z,28.05
2023-05-19T05:19:58.756Z,28.43
2023-05-19T05:22:26.044Z,28.32
2023-05-19T05:24:54.075Z,28.17
2023-05-19T05:27:21.098Z,27.88
2023-05-19T05:29:48.167Z,28.53
2023-05-19T05:32:15.846Z,28.44
2023-05-19T05:34:43.774Z,27.97
2023-05-19T05:37:13.822Z,28.15
2023-05-19T05:39:42.524Z,28.15
2023-05-19T05:42:10.974Z,28.67
2023-05-19T05:44:39.532Z,28.63
2023-05-19T05:47:07.931Z,29.02
2023-05-19T05:49:36.059Z,29.07
2023-05-19T05:52:06.388Z,29.16
2023-05-19T05:54:40.572Z,28.79
2023-05-19T05:57:09.060Z,29.08
2023-05-19T05:59:35.976Z,29.12
2023-05-19T06:02:03.474Z,28.67
2023-05-19T06:04:31.492Z,29.12
2023-05-19T06:06:58.663Z,29.12
2023-05-19T06:09:26.365Z,29.24
2023-05-19T06:11:53.413Z,29.44
2023-05-19T06:14:20.770Z,29.83
2023-05-19T06:17:10.485Z,29.23
2023-05-19T06:19:37.810Z,29.37
2023-05-19T06:22:04.837Z,29.11
2023-05-19T06:24:31.933Z,29.12
2023-05-19T06:26:58.905Z,29.27
2023-05-19T06:29:25.940Z,28.16
2023-05-19T06:31:58.165Z,27.56
2023-05-19T06:34:25.426Z,27.29
2023-05-19T06:36:52.481Z,27.59
2023-05-19T06:39:20.695Z,27.92
2023-05-19T06:41:47.659Z,28.15
2023-05-19T06:44:34.613Z,28.54
2023-05-19T06:47:01.617Z,28.60
2023-05-19T06:49:28.544Z,28.71
2023-05-19T06:51:56.042Z,28.81
2023-05-19T06:54:22.996Z,28.88
2023-05-19T06:56:50.018Z,28.70
2023-05-19T06:59:17.012Z,28.38
2023-05-19T07:01:45.316Z,28.50
2023-05-19T07:04:12.555Z,28.86
2023-05-19T07:06:40.758Z,29.16
2023-05-19T07:09:09.286Z,29.34
2023-05-19T07:11:37.903Z,29.38
2023-05-19T07:14:05.419Z,29.44
2023-05-19T07:16:32.665Z,29.31
2023-05-19T07:18:59.787Z,29.08
2023-05-19T07:21:26.879Z,29.09
2023-05-19T07:23:53.788Z,29.06
2023-05-19T07:26:20.807Z,28.57
2023-05-19T07:28:47.799Z,28.73
2023-05-19T07:31:14.892Z,28.52
2023-05-19T07:33:41.933Z,29.07
2023-05-19T07:36:08.948Z,29.51
2023-05-19T07:38:36.016Z,28.59
2023-05-19T07:41:03.955Z,28.58
2023-05-19T07:43:30.926Z,28.60
2023-05-19T07:45:58.079Z,28.79
2023-05-19T07:48:25.083Z,28.95
2023-05-19T07:50:52.992Z,29.15
2023-05-19T07:53:20.716Z,29.45
2023-05-19T07:55:47.691Z,29.29
2023-05-19T07:58:15.539Z,29.49
2023-05-19T08:00:42.647Z,29.30
2023-05-19T08:03:10.370Z,29.22
2023-05-19T08:05:38.183Z,29.41
2023-05-19T08:08:23.882Z,29.87
2023-05-19T08:10:51.654Z,29.61
2023-05-19T08:13:18.642Z,29.16
2023-05-19T08:15:45.744Z,28.59
2023-05-19T08:18:12.782Z,28.89
2023-05-19T08:20:40.256Z,28.98
2023-05-19T08:23:07.209Z,28.55
2023-05-19T08:25:34.252Z,28.65
2023-05-19T08:28:01.283Z,29.44
2023-05-19T08:30:28.359Z,29.47
2023-05-19T08:32:55.523Z,28.70
2023-05-19T08:35:22.611Z,28.76
2023-05-19T08:37:49.544Z,28.33
2023-05-19T08:40:18.036Z,28.61
2023-05-19T08:42:46.020Z,29.57
2023-05-19T08:45:13.852Z,30.03
2023-05-19T08:47:46.501Z,30.45
2023-05-19T08:50:20.114Z,29.57
2023-05-19T08:52:53.057Z,28.93
2023-05-19T08:55:23.455Z,28.62
2023-05-19T08:57:51.150Z,28.56
2023-05-19T09:00:19.419Z,28.44
2023-05-19T09:02:59.798Z,28.08
2023-05-19T09:05:28.801Z,28.02
2023-05-19T09:07:55.793Z,27.91
2023-05-19T09:10:23.109Z,28.01
2023-05-19T09:12:50.240Z,28.97
2023-05-19T09:15:18.097Z,29.26
2023-05-19T09:17:47.887Z,29.74
2023-05-19T09:20:17.336Z,30.24
2023-05-19T09:22:45.104Z,30.42
2023-05-19T09:25:19.476Z,30.08
2023-05-19T09:27:47.412Z,29.31
2023-05-19T09:30:15.585Z,29.27
2023-05-19T09:32:43.826Z,29.02
2023-05-19T09:35:12.401Z,28.88
2023-05-19T09:37:40.841Z,28.55
2023-05-19T09:40:12.475Z,28.59
2023-05-19T09:42:42.101Z,28.38
2023-05-19T09:45:09.419Z,28.20
2023-05-19T09:47:38.081Z,28.28
2023-05-19T09:50:09.834Z,28.28
2023-05-19T09:52:39.999Z,28.01
2023-05-19T09:55:10.928Z,27.96
2023-05-19T09:57:39.039Z,27.78
2023-05-19T10:00:11.531Z,27.67
2023-05-19T10:02:42.219Z,28.09
2023-05-19T10:05:12.959Z,28.91
2023-05-19T10:07:41.080Z,29.37
2023-05-19T10:10:13.406Z,28.88
2023-05-19T10:12:41.162Z,28.56
2023-05-19T10:15:10.503Z,28.06
2023-05-19T10:17:42.860Z,28.01
2023-05-19T10:20:17.349Z,28.28
2023-05-19T10:22:46.614Z,28.34
2023-05-19T10:25:14.099Z,28.49
2023-05-19T10:27:44.568Z,27.85
2023-05-19T10:30:16.522Z,27.99
2023-05-19T10:32:46.907Z,28.07
2023-05-19T10:35:28.418Z,27.75
2023-05-19T10:38:24.476Z,28.52
2023-05-19T10:41:10.262Z,29.37
2023-05-19T10:43:39.905Z,29.86
2023-05-19T10:46:07.048Z,30.07
2023-05-19T10:48:35.200Z,30.14
2023-05-19T10:51:02.827Z,30.05
2023-05-19T10:53:33.450Z,29.72
2023-05-19T10:56:02.352Z,29.47
2023-05-19T10:58:50.481Z,29.59
2023-05-19T11:01:19.548Z,29.61
2023-05-19T11:03:56.029Z,29.74
2023-05-19T11:06:29.973Z,28.96
2023-05-19T11:09:10.326Z,29.07
2023-05-19T11:11:52.107Z,29.06
2023-05-19T11:14:21.829Z,28.65
2023-05-19T11:16:50.395Z,28.47
2023-05-19T11:19:27.598Z,28.69
2023-05-19T11:21:55.324Z,29.01
2023-05-19T11:24:46.579Z,28.92
2023-05-19T11:27:33.984Z,28.95
2023-05-19T11:30:02.618Z,28.83
2023-05-19T11:32:31.077Z,28.74
2023-05-19T11:34:58.362Z,28.80
2023-05-19T11:37:25.662Z,28.78
2023-05-19T11:39:53.302Z,28.68
2023-05-19T11:42:20.790Z,28.67
2023-05-19T11:44:49.474Z,28.71
2023-05-19T11:47:17.160Z,28.73
2023-05-19T11:50:04.688Z,28.86
2023-05-19T11:52:32.201Z,28.72
2023-05-19T11:55:02.291Z,28.62
2023-05-19T11:57:29.483Z,28.51
2023-05-19T11:59:56.826Z,28.55
2023-05-19T12:02:25.425Z,28.53
2023-05-19T12:04:52.878Z,28.55
2023-05-19T12:07:24.183Z,28.49
2023-05-19T12:09:52.330Z,28.48
2023-05-19T12:12:20.875Z,28.37
2023-05-19T12:14:50.004Z,28.45
2023-05-19T12:17:21.341Z,28.39
2023-05-19T12:19:49.262Z,28.33
2023-05-19T12:22:18.120Z,28.35
2023-05-19T12:24:47.391Z,28.28
2023-05-19T12:27:23.627Z,28.50
2023-05-19T12:29:51.610Z,28.42
2023-05-19T12:32:18.659Z,28.32
2023-05-19T12:34:45.723Z,28.40
2023-05-19T12:37:13.099Z,28.40
2023-05-19T12:39:42.205Z,28.97
2023-05-19T12:42:10.475Z,28.94
2023-05-19T12:44:49.501Z,28.71
2023-05-19T12:47:17.503Z,28.50
2023-05-19T12:50:00.760Z,28.65
2023-05-19T12:52:29.567Z,28.49
2023-05-19T12:55:00.574Z,28.49
2023-05-19T12:57:28.729Z,28.06
2023-05-19T13:00:00.989Z,27.87
2023-05-19T13:02:28.678Z,27.88
2023-05-19T13:04:55.778Z,27.63
2023-05-19T13:07:25.262Z,27.67
2023-05-19T13:09:54.785Z,27.58
2023-05-19T13:12:21.894Z,27.72
2023-05-19T13:14:48.839Z,27.62
2023-05-19T13:17:15.714Z,27.43
2023-05-19T13:19:43.010Z,27.45
2023-05-19T13:22:10.190Z,27.34
2023-05-19T13:24:37.436Z,27.27
2023-05-19T13:27:06.216Z,27.36
2023-05-19T13:29:33.671Z,27.26
2023-05-19T13:32:01.618Z,27.34
2023-05-19T13:34:29.022Z,27.27
2023-05-19T13:36:56.097Z,27.19
2023-05-19T13:39:25.643Z,27.27
2023-05-19T13:41:52.848Z,27.23
2023-05-19T13:44:19.902Z,27.40
2023-05-19T13:46:48.490Z,27.31
2023-05-19T13:49:17.196Z,27.61
2023-05-19T13:51:44.481Z,27.69
2023-05-19T13:54:11.998Z,27.67
2023-05-19T13:56:39.754Z,27.57
2023-05-19T13:59:07.109Z,27.76
2023-05-19T14:01:34.160Z,28.02
2023-05-19T14:04:01.486Z,28.01
2023-05-19T14:06:28.808Z,28.03
2023-05-19T14:08:55.920Z,27.99
2023-05-19T14:11:23.210Z,27.76
2023-05-19T14:13:52.522Z,27.71
2023-05-19T14:16:20.420Z,27.49
2023-05-19T14:18:47.986Z,27.37
2023-05-19T14:21:15.857Z,27.33
2023-05-19T14:23:43.161Z,27.36
2023-05-19T14:26:10.438Z,27.61
2023-05-19T14:28:37.741Z,27.59
2023-05-19T14:31:04.985Z,27.38
2023-05-19T14:33:35.232Z,27.66
2023-05-19T14:36:02.913Z,27.57
2023-05-19T14:38:32.581Z,27.60
2023-05-19T14:40:59.732Z,27.75
2023-05-19T14:43:27.269Z,27.48
2023-05-19T14:45:55.516Z,27.72
2023-05-19T14:48:22.868Z,27.79
2023-05-19T14:50:50.136Z,27.69
2023-05-19T14:53:17.217Z,27.56
2023-05-19T14:55:44.358Z,27.22
2023-05-19T14:58:26.773Z,26.99
2023-05-19T15:00:57.956Z,26.73
2023-05-19T15:03:25.403Z,26.42
2023-05-19T15:05:52.899Z,26.26
2023-05-19T15:08:20.173Z,25.97
2023-05-19T15:10:51.476Z,25.73
2023-05-19T15:13:18.971Z,25.73
2023-05-19T15:15:46.284Z,25.39
2023-05-19T15:18:13.779Z,25.01
2023-05-19T15:20:41.081Z,24.74
2023-05-19T15:23:08.443Z,24.69
2023-05-19T15:25:35.773Z,24.65
2023-05-19T15:28:03.356Z,24.46
2023-05-19T15:30:30.693Z,24.45
2023-05-19T15:33:00.391Z,24.26
2023-05-19T15:35:27.678Z,24.14
2023-05-19T15:37:54.916Z,23.95
2023-05-19T15:40:22.257Z,23.89
2023-05-19T15:42:49.700Z,23.55
2023-05-19T15:45:17.033Z,23.54
2023-05-19T15:47:44.321Z,23.07
2023-05-19T15:50:11.687Z,22.95
2023-05-19T15:52:39.765Z,22.90
2023-05-19T15:55:08.389Z,22.91
2023-05-19T15:57:35.931Z,22.49
2023-05-19T16:00:03.204Z,22.53
2023-05-19T16:02:32.834Z,22.37
2023-05-19T16:05:00.097Z,22.28
2023-05-19T16:07:27.580Z,22.11
2023-05-19T16:09:55.640Z,21.92
2023-05-19T16:12:23.725Z,22.00
2023-05-19T16:14:51.169Z,21.84
2023-05-19T16:17:18.434Z,21.65
2023-05-19T16:19:45.801Z,21.68
2023-05-19T16:22:13.157Z,21.66
2023-05-19T16:24:40.407Z,21.60
2023-05-19T16:27:07.661Z,21.59
2023-05-19T16:29:34.835Z,21.46
2023-05-19T16:32:02.203Z,21.39
2023-05-19T16:34:30.666Z,21.53
2023-05-19T16:36:58.043Z,21.33
2023-05-19T16:39:25.322Z,21.32
2023-05-19T16:41:52.355Z,21.43
2023-05-19T16:44:19.754Z,21.49
2023-05-19T16:46:47.188Z,21.32
2023-05-19T16:49:14.465Z,21.38
2023-05-19T16:51:42.137Z,21.28
2023-05-19T16:54:11.363Z,21.35
2023-05-19T16:56:38.879Z,21.22
2023-05-19T16:59:08.795Z,21.32
2023-05-19T17:01:37.429Z,21.20
2023-05-19T17:04:05.156Z,21.07
2023-05-19T17:06:32.585Z,21.00
2023-05-19T17:08:59.973Z,21.08
2023-05-19T17:11:27.370Z,21.01
2023-05-19T17:13:55.009Z,21.08
2023-05-19T17:16:24.285Z,21.02
2023-05-19T17:18:52.006Z,21.17
2023-05-19T17:21:19.603Z,20.85
2023-05-19T17:23:46.865Z,21.00
2023-05-19T17:26:14.146Z,21.01
2023-05-19T17:28:41.452Z,20.98
2023-05-19T17:31:15.606Z,21.10
2023-05-19T17:33:42.891Z,20.89
2023-05-19T17:36:10.287Z,21.02
2023-05-19T17:38:37.752Z,20.84
2023-05-19T17:41:05.383Z,20.83
2023-05-19T17:43:32.599Z,20.80
2023-05-19T17:46:01.206Z,20.78
2023-05-19T17:48:28.920Z,20.75
2023-05-19T17:50:56.197Z,20.80
2023-05-19T17:53:23.986Z,20.74
2023-05-19T17:56:01.605Z,20.62
2023-05-19T17:58:29.580Z,20.72
2023-05-19T18:00:57.188Z,20.57
2023-05-19T18:03:25.300Z,20.70
2023-05-19T18:05:54.381Z,20.69
2023-05-19T18:08:24.016Z,20.77
2023-05-19T18:10:51.612Z,20.74
2023-05-19T18:13:19.231Z,20.69
2023-05-19T18:15:47.465Z,20.76
2023-05-19T18:18:20.487Z,20.78
2023-05-19T18:20:48.937Z,20.74
2023-05-19T18:23:16.277Z,20.71
2023-05-19T18:25:49.550Z,20.66
2023-05-19T18:28:16.897Z,20.66
2023-05-19T18:30:44.161Z,20.72
2023-05-19T18:33:12.066Z,20.74
2023-05-19T18:35:40.768Z,20.61
2023-05-19T18:38:08.394Z,20.73
2023-05-19T18:40:35.959Z,20.62
2023-05-19T18:43:03.634Z,20.69
2023-05-19T18:45:31.132Z,20.61
2023-05-19T18:47:58.515Z,20.69
2023-05-19T18:50:26.328Z,20.66
2023-05-19T18:52:53.652Z,20.52
2023-05-19T18:55:21.061Z,20.39
2023-05-19T18:57:48.399Z,20.41
2023-05-19T19:00:15.804Z,20.35
2023-05-19T19:02:43.725Z,20.04
2023-05-19T19:05:13.264Z,20.11
2023-05-19T19:07:46.611Z,19.87
2023-05-19T19:10:16.645Z,19.90
2023-05-19T19:12:47.323Z,19.70
2023-05-19T19:15:34.440Z,19.53
2023-05-19T19:18:01.690Z,19.41
2023-05-19T19:20:28.937Z,19.43
2023-05-19T19:22:56.212Z,19.21
2023-05-19T19:25:23.802Z,19.26
2023-05-19T19:27:54.066Z,19.10
2023-05-19T19:30:21.464Z,18.83
2023-05-19T19:32:51.309Z,18.80
2023-05-19T19:35:22.258Z,18.70
2023-05-19T19:37:50.047Z,18.82
2023-05-19T19:40:17.219Z,18.82
2023-05-19T19:42:44.254Z,18.61
2023-05-19T19:45:14.744Z,18.44
2023-05-19T19:47:43.380Z,18.32
2023-05-19T19:50:11.445Z,18.40
2023-05-19T19:52:38.936Z,18.38
2023-05-19T19:55:06.535Z,18.24
2023-05-19T19:57:33.660Z,18.14
2023-05-19T20:00:00.987Z,18.09
2023-05-19T20:02:28.208Z,17.93
2023-05-19T20:04:55.229Z,18.06
2023-05-19T20:07:22.236Z,18.06
2023-05-19T20:09:49.271Z,18.01
2023-05-19T20:12:16.481Z,17.89
2023-05-19T20:14:43.513Z,17.80
2023-05-19T20:17:10.489Z,17.92
2023-05-19T20:19:37.573Z,17.85
2023-05-19T20:22:04.870Z,17.72
2023-05-19T20:24:31.760Z,17.64
2023-05-19T20:26:58.751Z,17.77
2023-05-19T20:29:25.674Z,17.79
2023-05-19T20:31:53.647Z,17.73
2023-05-19T20:34:21.996Z,17.78
2023-05-19T20:36:49.023Z,17.55
2023-05-19T20:39:16.037Z,17.76
2023-05-19T20:41:43.204Z,17.59
2023-05-19T20:44:10.064Z,17.48
2023-05-19T20:46:37.016Z,17.62
2023-05-19T20:49:03.952Z,17.59
2023-05-19T20:51:31.096Z,17.42
2023-05-19T20:53:58.011Z,17.34
2023-05-19T20:56:24.974Z,17.35
2023-05-19T20:58:51.880Z,17.26
2023-05-19T21:01:18.893Z,17.22
2023-05-19T21:03:45.780Z,17.04
2023-05-19T21:06:12.772Z,17.13
2023-05-19T21:08:39.627Z,17.02
2023-05-19T21:11:06.657Z,17.14
2023-05-19T21:13:33.875Z,17.00
2023-05-19T21:16:00.893Z,17.08
2023-05-19T21:18:27.821Z,17.11
2023-05-19T21:20:54.820Z,16.98
2023-05-19T21:23:22.954Z,16.95
2023-05-19T21:25:50.639Z,17.00
2023-05-19T21:28:17.554Z,17.12
2023-05-19T21:30:48.440Z,17.10
2023-05-19T21:33:15.419Z,17.04
2023-05-19T21:35:42.412Z,16.99
2023-05-19T21:38:22.632Z,17.08
2023-05-19T21:40:50.684Z,16.92
2023-05-19T21:43:17.632Z,16.78
2023-05-19T21:45:45.298Z,16.75
2023-05-19T21:48:12.306Z,16.79
2023-05-19T21:50:39.334Z,16.64
2023-05-19T21:53:06.222Z,16.63
2023-05-19T21:55:33.366Z,16.60
2023-05-19T21:58:02.402Z,16.38
2023-05-19T22:00:29.828Z,16.49
2023-05-19T22:02:56.887Z,16.39
2023-05-19T22:05:24.056Z,16.48
2023-05-19T22:07:51.117Z,16.47
2023-05-19T22:10:18.213Z,16.45
2023-05-19T22:12:45.182Z,16.30
2023-05-19T22:15:12.240Z,16.59
2023-05-19T22:17:39.467Z,16.43
2023-05-19T22:20:07.162Z,16.30
2023-05-19T22:22:34.622Z,16.39
2023-05-19T22:25:03.325Z,16.32
2023-05-19T22:27:30.273Z,16.34
2023-05-19T22:29:57.251Z,16.35
2023-05-19T22:32:24.403Z,16.22
2023-05-19T22:34:51.629Z,16.28
2023-05-19T22:37:18.576Z,16.44
2023-05-19T22:39:45.643Z,16.33
2023-05-19T22:42:12.576Z,16.28
2023-05-19T22:44:39.578Z,16.24
2023-05-19T22:47:06.606Z,16.09
2023-05-19T22:49:33.619Z,15.87
2023-05-19T22:52:00.493Z,16.10
2023-05-19T22:54:27.499Z,15.89
2023-05-19T22:56:54.510Z,15.85
2023-05-19T22:59:21.472Z,15.95
2023-05-19T23:01:48.410Z,15.86
2023-05-19T23:04:15.575Z,15.89
2023-05-19T23:06:42.516Z,15.39
2023-05-19T23:09:09.496Z,15.20
2023-05-19T23:11:36.574Z,15.30
2023-05-19T23:14:03.672Z,15.15
2023-05-19T23:16:30.624Z,15.22
2023-05-19T23:18:57.730Z,15.07
2023-05-19T23:21:24.739Z,15.06
2023-05-19T23:23:51.865Z,15.18
2023-05-19T23:26:18.774Z,15.20
2023-05-19T23:28:45.708Z,15.23
2023-05-19T23:31:12.631Z,15.05
2023-05-19T23:33:39.655Z,14.94
2023-05-19T23:36:08.164Z,14.90
2023-05-19T23:38:36.517Z,14.91
2023-05-19T23:41:04.117Z,14.94
2023-05-19T23:43:31.457Z,14.79
2023-05-19T23:45:59.021Z,14.83
2023-05-19T23:48:26.921Z,14.93
2023-05-19T23:50:53.808Z,14.95
2023-05-19T23:53:20.857Z,15.02
2023-05-19T23:55:47.825Z,14.86
2023-05-19T23:58:14.736Z,14.80
